sensor_id;sensor_type;location;lat;lon;timestamp;temperature;humidity
19309;DHT22;9789;50.010;19.890;2022-09-28T00:01:14;22.70;99.90
19309;DHT22;9789;50.010;19.890;2022-09-28T00:03:44;22.80;99.90
19309;DHT22;9789;50.010;19.890;2022-09-28T00:06:14;22.80;99.90
19309;DHT22;9789;50.010;19.890;2022-09-28T00:08:42;22.80;99.90
19309;DHT22;9789;50.010;19.890;2022-09-28T00:11:12;22.70;99.90
19309;DHT22;9789;50.010;19.890;2022-09-28T00:13:41;22.70;99.90
19309;DHT22;9789;50.010;19.890;2022-09-28T00:16:12;22.80;99.90
19309;DHT22;9789;50.010;19.890;2022-09-28T00:18:42;22.70;99.90
19309;DHT22;9789;50.010;19.890;2022-09-28T00:21:14;22.70;99.90
19309;DHT22;9789;50.010;19.890;2022-09-28T00:23:42;22.70;99.90
19309;DHT22;9789;50.010;19.890;2022-09-28T00:26:25;22.70;99.90
19309;DHT22;9789;50.010;19.890;2022-09-28T00:28:56;22.70;99.90
19309;DHT22;9789;50.010;19.890;2022-09-28T00:31:25;22.70;99.90
19309;DHT22;9789;50.010;19.890;2022-09-28T00:33:58;22.70;99.90
19309;DHT22;9789;50.010;19.890;2022-09-28T00:36:34;22.70;99.90
19309;DHT22;9789;50.010;19.890;2022-09-28T00:39:05;22.70;99.90
19309;DHT22;9789;50.010;19.890;2022-09-28T00:41:37;22.70;99.90
19309;DHT22;9789;50.010;19.890;2022-09-28T00:47:33;22.70;99.90
19309;DHT22;9789;50.010;19.890;2022-09-28T00:50:09;22.70;99.90
19309;DHT22;9789;50.010;19.890;2022-09-28T00:52:49;22.70;99.90
19309;DHT22;9789;50.010;19.890;2022-09-28T00:55:24;22.70;99.80
19309;DHT22;9789;50.010;19.890;2022-09-28T00:57:56;22.70;99.60
19309;DHT22;9789;50.010;19.890;2022-09-28T01:00:28;22.70;99.60
19309;DHT22;9789;50.010;19.890;2022-09-28T01:02:58;22.70;99.60
19309;DHT22;9789;50.010;19.890;2022-09-28T01:05:27;22.70;99.60
19309;DHT22;9789;50.010;19.890;2022-09-28T01:07:59;22.70;99.60
19309;DHT22;9789;50.010;19.890;2022-09-28T01:10:30;22.70;99.60
19309;DHT22;9789;50.010;19.890;2022-09-28T01:12:58;22.70;99.60
19309;DHT22;9789;50.010;19.890;2022-09-28T01:15:27;22.70;99.50
19309;DHT22;9789;50.010;19.890;2022-09-28T01:18:07;22.70;99.50
19309;DHT22;9789;50.010;19.890;2022-09-28T01:20:59;22.70;99.40
19309;DHT22;9789;50.010;19.890;2022-09-28T01:23:58;22.70;99.30
19309;DHT22;9789;50.010;19.890;2022-09-28T01:26:49;22.60;99.30
19309;DHT22;9789;50.010;19.890;2022-09-28T01:29:30;22.70;99.20
19309;DHT22;9789;50.010;19.890;2022-09-28T01:32:24;22.60;99.10
19309;DHT22;9789;50.010;19.890;2022-09-28T01:35:00;22.70;99.00
19309;DHT22;9789;50.010;19.890;2022-09-28T01:37:35;22.60;99.00
19309;DHT22;9789;50.010;19.890;2022-09-28T01:40:07;22.60;98.80
19309;DHT22;9789;50.010;19.890;2022-09-28T01:42:39;22.60;98.80
19309;DHT22;9789;50.010;19.890;2022-09-28T01:45:14;22.60;98.80
19309;DHT22;9789;50.010;19.890;2022-09-28T01:47:45;22.70;98.80
19309;DHT22;9789;50.010;19.890;2022-09-28T01:50:16;22.60;98.60
19309;DHT22;9789;50.010;19.890;2022-09-28T01:52:48;22.60;98.60
19309;DHT22;9789;50.010;19.890;2022-09-28T01:55:24;22.60;98.50
19309;DHT22;9789;50.010;19.890;2022-09-28T01:57:59;22.70;98.50
19309;DHT22;9789;50.010;19.890;2022-09-28T02:00:32;22.60;98.50
19309;DHT22;9789;50.010;19.890;2022-09-28T02:03:07;22.70;98.50
19309;DHT22;9789;50.010;19.890;2022-09-28T02:05:46;22.60;98.40
19309;DHT22;9789;50.010;19.890;2022-09-28T02:08:20;22.60;98.40
19309;DHT22;9789;50.010;19.890;2022-09-28T02:10:53;22.60;98.30
19309;DHT22;9789;50.010;19.890;2022-09-28T02:13:30;22.60;98.30
19309;DHT22;9789;50.010;19.890;2022-09-28T02:16:03;22.60;98.30
19309;DHT22;9789;50.010;19.890;2022-09-28T02:18:33;22.60;98.20
19309;DHT22;9789;50.010;19.890;2022-09-28T02:21:07;22.60;98.10
19309;DHT22;9789;50.010;19.890;2022-09-28T02:23:38;22.60;98.10
19309;DHT22;9789;50.010;19.890;2022-09-28T02:26:11;22.60;97.90
19309;DHT22;9789;50.010;19.890;2022-09-28T02:28:42;22.60;97.90
19309;DHT22;9789;50.010;19.890;2022-09-28T02:31:10;22.60;97.80
19309;DHT22;9789;50.010;19.890;2022-09-28T02:33:40;22.60;97.80
19309;DHT22;9789;50.010;19.890;2022-09-28T02:36:10;22.60;97.70
19309;DHT22;9789;50.010;19.890;2022-09-28T02:38:38;22.60;98.00
19309;DHT22;9789;50.010;19.890;2022-09-28T02:41:16;22.60;97.70
19309;DHT22;9789;50.010;19.890;2022-09-28T02:43:58;22.60;97.60
19309;DHT22;9789;50.010;19.890;2022-09-28T02:46:34;22.60;97.70
19309;DHT22;9789;50.010;19.890;2022-09-28T02:49:22;22.60;97.50
19309;DHT22;9789;50.010;19.890;2022-09-28T02:52:07;22.60;97.50
19309;DHT22;9789;50.010;19.890;2022-09-28T02:55:03;22.60;97.50
19309;DHT22;9789;50.010;19.890;2022-09-28T02:57:46;22.60;97.30
19309;DHT22;9789;50.010;19.890;2022-09-28T03:00:19;22.60;97.30
19309;DHT22;9789;50.010;19.890;2022-09-28T03:02:55;22.60;97.30
19309;DHT22;9789;50.010;19.890;2022-09-28T03:05:33;22.60;97.20
19309;DHT22;9789;50.010;19.890;2022-09-28T03:08:08;22.60;97.20
19309;DHT22;9789;50.010;19.890;2022-09-28T03:10:42;22.50;97.10
19309;DHT22;9789;50.010;19.890;2022-09-28T03:13:11;22.60;97.10
19309;DHT22;9789;50.010;19.890;2022-09-28T03:15:42;22.60;97.00
19309;DHT22;9789;50.010;19.890;2022-09-28T03:18:16;22.60;96.90
19309;DHT22;9789;50.010;19.890;2022-09-28T03:20:44;22.50;96.90
19309;DHT22;9789;50.010;19.890;2022-09-28T03:23:12;22.50;96.70
19309;DHT22;9789;50.010;19.890;2022-09-28T03:25:56;22.50;96.80
19309;DHT22;9789;50.010;19.890;2022-09-28T03:28:24;22.50;96.80
19309;DHT22;9789;50.010;19.890;2022-09-28T03:30:55;22.50;96.60
19309;DHT22;9789;50.010;19.890;2022-09-28T03:33:24;22.50;96.60
19309;DHT22;9789;50.010;19.890;2022-09-28T03:35:52;22.50;96.40
19309;DHT22;9789;50.010;19.890;2022-09-28T03:38:22;22.50;96.20
19309;DHT22;9789;50.010;19.890;2022-09-28T03:40:54;22.50;96.30
19309;DHT22;9789;50.010;19.890;2022-09-28T03:43:23;22.50;96.20
19309;DHT22;9789;50.010;19.890;2022-09-28T03:45:57;22.50;96.20
19309;DHT22;9789;50.010;19.890;2022-09-28T03:48:30;22.50;96.20
19309;DHT22;9789;50.010;19.890;2022-09-28T03:51:01;22.50;96.20
19309;DHT22;9789;50.010;19.890;2022-09-28T03:53:29;22.50;96.20
19309;DHT22;9789;50.010;19.890;2022-09-28T03:56:02;22.50;95.90
19309;DHT22;9789;50.010;19.890;2022-09-28T03:58:31;22.50;96.00
19309;DHT22;9789;50.010;19.890;2022-09-28T04:01:02;22.50;95.90
19309;DHT22;9789;50.010;19.890;2022-09-28T04:03:32;22.50;96.00
19309;DHT22;9789;50.010;19.890;2022-09-28T04:06:00;22.50;95.90
19309;DHT22;9789;50.010;19.890;2022-09-28T04:08:29;22.50;95.70
19309;DHT22;9789;50.010;19.890;2022-09-28T04:10:58;22.50;95.80
19309;DHT22;9789;50.010;19.890;2022-09-28T04:13:27;22.50;95.80
19309;DHT22;9789;50.010;19.890;2022-09-28T04:15:59;22.50;95.50
19309;DHT22;9789;50.010;19.890;2022-09-28T04:18:32;22.50;95.60
19309;DHT22;9789;50.010;19.890;2022-09-28T04:21:30;22.50;95.60
19309;DHT22;9789;50.010;19.890;2022-09-28T04:24:07;22.50;95.60
19309;DHT22;9789;50.010;19.890;2022-09-28T04:26:36;22.50;95.70
19309;DHT22;9789;50.010;19.890;2022-09-28T04:29:04;22.50;96.20
19309;DHT22;9789;50.010;19.890;2022-09-28T04:31:52;22.60;96.10
19309;DHT22;9789;50.010;19.890;2022-09-28T04:34:37;22.60;96.20
19309;DHT22;9789;50.010;19.890;2022-09-28T04:37:10;22.60;96.20
19309;DHT22;9789;50.010;19.890;2022-09-28T04:39:39;22.60;96.50
19309;DHT22;9789;50.010;19.890;2022-09-28T04:42:15;22.60;96.70
19309;DHT22;9789;50.010;19.890;2022-09-28T04:44:44;22.60;96.80
19309;DHT22;9789;50.010;19.890;2022-09-28T04:47:13;22.60;96.80
19309;DHT22;9789;50.010;19.890;2022-09-28T04:50:08;22.70;97.20
19309;DHT22;9789;50.010;19.890;2022-09-28T04:52:56;22.70;97.00
19309;DHT22;9789;50.010;19.890;2022-09-28T04:55:24;22.70;97.20
19309;DHT22;9789;50.010;19.890;2022-09-28T04:57:54;22.70;97.30
19309;DHT22;9789;50.010;19.890;2022-09-28T05:00:22;22.70;98.20
19309;DHT22;9789;50.010;19.890;2022-09-28T05:03:05;22.70;98.00
19309;DHT22;9789;50.010;19.890;2022-09-28T05:06:13;22.70;98.20
19309;DHT22;9789;50.010;19.890;2022-09-28T05:08:44;22.80;98.20
19309;DHT22;9789;50.010;19.890;2022-09-28T05:11:14;22.70;98.20
19309;DHT22;9789;50.010;19.890;2022-09-28T05:13:44;22.70;98.10
19309;DHT22;9789;50.010;19.890;2022-09-28T05:16:15;22.70;98.30
19309;DHT22;9789;50.010;19.890;2022-09-28T05:19:02;22.70;98.00
19309;DHT22;9789;50.010;19.890;2022-09-28T05:21:33;22.80;98.40
19309;DHT22;9789;50.010;19.890;2022-09-28T05:24:01;22.80;98.30
19309;DHT22;9789;50.010;19.890;2022-09-28T05:26:35;22.80;98.10
19309;DHT22;9789;50.010;19.890;2022-09-28T05:29:05;22.80;98.30
19309;DHT22;9789;50.010;19.890;2022-09-28T05:31:48;22.70;93.90
19309;DHT22;9789;50.010;19.890;2022-09-28T05:34:25;22.50;91.60
19309;DHT22;9789;50.010;19.890;2022-09-28T05:36:55;22.30;90.90
19309;DHT22;9789;50.010;19.890;2022-09-28T05:39:23;22.10;90.20
19309;DHT22;9789;50.010;19.890;2022-09-28T05:41:51;21.80;83.80
19309;DHT22;9789;50.010;19.890;2022-09-28T05:44:20;21.70;84.10
19309;DHT22;9789;50.010;19.890;2022-09-28T05:46:48;21.60;85.50
19309;DHT22;9789;50.010;19.890;2022-09-28T05:49:16;21.60;86.40
19309;DHT22;9789;50.010;19.890;2022-09-28T05:51:45;21.40;82.60
19309;DHT22;9789;50.010;19.890;2022-09-28T05:54:15;21.20;81.60
19309;DHT22;9789;50.010;19.890;2022-09-28T05:56:45;21.10;82.10
19309;DHT22;9789;50.010;19.890;2022-09-28T05:59:15;21.00;81.50
19309;DHT22;9789;50.010;19.890;2022-09-28T06:01:43;20.90;81.20
19309;DHT22;9789;50.010;19.890;2022-09-28T06:04:11;20.80;80.60
19309;DHT22;9789;50.010;19.890;2022-09-28T06:06:41;20.70;80.50
19309;DHT22;9789;50.010;19.890;2022-09-28T06:09:09;20.70;80.10
19309;DHT22;9789;50.010;19.890;2022-09-28T06:11:58;20.80;81.70
19309;DHT22;9789;50.010;19.890;2022-09-28T06:14:35;20.90;83.60
19309;DHT22;9789;50.010;19.890;2022-09-28T06:17:04;21.10;84.20
19309;DHT22;9789;50.010;19.890;2022-09-28T06:19:33;21.30;85.50
19309;DHT22;9789;50.010;19.890;2022-09-28T06:22:22;21.50;86.00
19309;DHT22;9789;50.010;19.890;2022-09-28T06:25:02;21.60;86.50
19309;DHT22;9789;50.010;19.890;2022-09-28T06:27:32;21.70;87.30
19309;DHT22;9789;50.010;19.890;2022-09-28T06:30:01;21.80;87.70
19309;DHT22;9789;50.010;19.890;2022-09-28T06:32:29;22.00;87.90
19309;DHT22;9789;50.010;19.890;2022-09-28T06:34:57;22.00;87.90
19309;DHT22;9789;50.010;19.890;2022-09-28T06:37:26;22.10;88.00
19309;DHT22;9789;50.010;19.890;2022-09-28T06:39:55;22.20;88.30
19309;DHT22;9789;50.010;19.890;2022-09-28T06:42:23;22.20;88.30
19309;DHT22;9789;50.010;19.890;2022-09-28T06:45:21;22.30;88.10
19309;DHT22;9789;50.010;19.890;2022-09-28T06:48:09;22.30;88.10
19309;DHT22;9789;50.010;19.890;2022-09-28T06:50:40;22.30;88.30
19309;DHT22;9789;50.010;19.890;2022-09-28T06:53:28;22.40;88.50
19309;DHT22;9789;50.010;19.890;2022-09-28T06:56:23;22.40;88.50
19309;DHT22;9789;50.010;19.890;2022-09-28T06:58:57;22.40;88.80
19309;DHT22;9789;50.010;19.890;2022-09-28T07:01:28;22.40;89.00
19309;DHT22;9789;50.010;19.890;2022-09-28T07:04:06;22.50;89.80
19309;DHT22;9789;50.010;19.890;2022-09-28T07:07:11;22.50;89.10
19309;DHT22;9789;50.010;19.890;2022-09-28T07:09:43;22.50;89.50
19309;DHT22;9789;50.010;19.890;2022-09-28T07:12:34;22.50;89.80
19309;DHT22;9789;50.010;19.890;2022-09-28T07:15:18;22.60;90.10
19309;DHT22;9789;50.010;19.890;2022-09-28T07:17:47;22.60;90.20
19309;DHT22;9789;50.010;19.890;2022-09-28T07:20:28;22.60;90.30
19309;DHT22;9789;50.010;19.890;2022-09-28T07:22:59;22.70;90.40
19309;DHT22;9789;50.010;19.890;2022-09-28T07:26:03;22.60;90.40
19309;DHT22;9789;50.010;19.890;2022-09-28T07:28:58;22.70;90.60
19309;DHT22;9789;50.010;19.890;2022-09-28T07:31:36;22.70;90.70
19309;DHT22;9789;50.010;19.890;2022-09-28T07:34:35;22.70;90.70
19309;DHT22;9789;50.010;19.890;2022-09-28T07:37:11;22.70;90.70
19309;DHT22;9789;50.010;19.890;2022-09-28T07:39:40;22.70;90.90
19309;DHT22;9789;50.010;19.890;2022-09-28T07:42:27;22.80;91.00
19309;DHT22;9789;50.010;19.890;2022-09-28T07:44:56;22.80;91.20
19309;DHT22;9789;50.010;19.890;2022-09-28T07:47:25;22.80;91.40
19309;DHT22;9789;50.010;19.890;2022-09-28T07:50:30;22.80;91.50
19309;DHT22;9789;50.010;19.890;2022-09-28T07:53:05;22.90;91.40
19309;DHT22;9789;50.010;19.890;2022-09-28T07:55:51;22.90;91.40
19309;DHT22;9789;50.010;19.890;2022-09-28T07:58:34;22.90;91.40
19309;DHT22;9789;50.010;19.890;2022-09-28T08:01:37;22.90;91.20
19309;DHT22;9789;50.010;19.890;2022-09-28T08:04:08;22.90;91.40
19309;DHT22;9789;50.010;19.890;2022-09-28T08:06:39;23.00;91.50
19309;DHT22;9789;50.010;19.890;2022-09-28T08:09:09;23.00;91.70
19309;DHT22;9789;50.010;19.890;2022-09-28T08:11:56;23.00;91.50
19309;DHT22;9789;50.010;19.890;2022-09-28T08:14:41;23.00;91.70
19309;DHT22;9789;50.010;19.890;2022-09-28T08:17:22;23.00;91.70
19309;DHT22;9789;50.010;19.890;2022-09-28T08:19:54;23.00;91.70
19309;DHT22;9789;50.010;19.890;2022-09-28T08:22:42;23.00;91.70
19309;DHT22;9789;50.010;19.890;2022-09-28T08:25:11;23.00;92.00
19309;DHT22;9789;50.010;19.890;2022-09-28T08:27:39;23.10;92.10
19309;DHT22;9789;50.010;19.890;2022-09-28T08:30:08;23.10;92.20
19309;DHT22;9789;50.010;19.890;2022-09-28T08:32:51;23.00;92.20
19309;DHT22;9789;50.010;19.890;2022-09-28T08:35:38;23.10;92.60
19309;DHT22;9789;50.010;19.890;2022-09-28T08:38:20;23.20;92.70
19309;DHT22;9789;50.010;19.890;2022-09-28T08:41:25;23.20;92.60
19309;DHT22;9789;50.010;19.890;2022-09-28T08:44:15;23.30;92.70
19309;DHT22;9789;50.010;19.890;2022-09-28T08:47:02;23.30;92.70
19309;DHT22;9789;50.010;19.890;2022-09-28T08:49:49;23.30;92.50
19309;DHT22;9789;50.010;19.890;2022-09-28T08:52:32;23.30;92.40
19309;DHT22;9789;50.010;19.890;2022-09-28T08:55:27;23.40;92.40
19309;DHT22;9789;50.010;19.890;2022-09-28T08:58:02;23.40;92.40
19309;DHT22;9789;50.010;19.890;2022-09-28T09:00:38;23.40;92.40
19309;DHT22;9789;50.010;19.890;2022-09-28T09:03:11;23.40;92.40
19309;DHT22;9789;50.010;19.890;2022-09-28T09:05:51;23.40;92.40
19309;DHT22;9789;50.010;19.890;2022-09-28T09:08:52;23.40;92.40
19309;DHT22;9789;50.010;19.890;2022-09-28T09:11:35;23.40;92.40
19309;DHT22;9789;50.010;19.890;2022-09-28T09:14:42;23.40;92.50
19309;DHT22;9789;50.010;19.890;2022-09-28T09:17:21;23.40;92.50
19309;DHT22;9789;50.010;19.890;2022-09-28T09:20:18;23.00;92.20
19309;DHT22;9789;50.010;19.890;2022-09-28T09:23:14;23.40;92.30
19309;DHT22;9789;50.010;19.890;2022-09-28T09:25:48;23.40;92.10
19309;DHT22;9789;50.010;19.890;2022-09-28T09:28:36;23.40;92.20
19309;DHT22;9789;50.010;19.890;2022-09-28T09:31:18;23.40;92.20
19309;DHT22;9789;50.010;19.890;2022-09-28T09:34:32;23.40;91.90
19309;DHT22;9789;50.010;19.890;2022-09-28T09:37:40;23.40;92.00
19309;DHT22;9789;50.010;19.890;2022-09-28T09:40:58;23.40;91.90
19309;DHT22;9789;50.010;19.890;2022-09-28T09:44:14;23.30;91.70
19309;DHT22;9789;50.010;19.890;2022-09-28T09:46:52;23.40;91.60
19309;DHT22;9789;50.010;19.890;2022-09-28T09:49:29;23.40;91.70
19309;DHT22;9789;50.010;19.890;2022-09-28T09:52:04;23.40;91.70
19309;DHT22;9789;50.010;19.890;2022-09-28T09:54:37;23.40;91.90
19309;DHT22;9789;50.010;19.890;2022-09-28T09:57:13;23.50;91.90
19309;DHT22;9789;50.010;19.890;2022-09-28T09:59:48;23.50;91.80
19309;DHT22;9789;50.010;19.890;2022-09-28T10:02:26;23.50;91.40
19309;DHT22;9789;50.010;19.890;2022-09-28T10:05:19;23.50;91.70
19309;DHT22;9789;50.010;19.890;2022-09-28T10:07:52;23.40;91.80
19309;DHT22;9789;50.010;19.890;2022-09-28T10:10:26;23.40;91.80
19309;DHT22;9789;50.010;19.890;2022-09-28T10:13:05;23.40;91.80
19309;DHT22;9789;50.010;19.890;2022-09-28T10:15:40;23.40;91.80
19309;DHT22;9789;50.010;19.890;2022-09-28T10:18:32;23.40;91.70
19309;DHT22;9789;50.010;19.890;2022-09-28T10:21:30;23.40;91.80
19309;DHT22;9789;50.010;19.890;2022-09-28T10:24:25;23.40;91.90
19309;DHT22;9789;50.010;19.890;2022-09-28T10:26:58;23.40;92.10
19309;DHT22;9789;50.010;19.890;2022-09-28T10:29:36;23.40;92.20
19309;DHT22;9789;50.010;19.890;2022-09-28T10:32:17;23.40;92.30
19309;DHT22;9789;50.010;19.890;2022-09-28T10:34:47;23.30;92.30
19309;DHT22;9789;50.010;19.890;2022-09-28T10:37:20;23.40;92.40
19309;DHT22;9789;50.010;19.890;2022-09-28T10:40:26;23.40;92.40
19309;DHT22;9789;50.010;19.890;2022-09-28T10:43:00;23.40;92.50
19309;DHT22;9789;50.010;19.890;2022-09-28T10:45:33;23.40;92.70
19309;DHT22;9789;50.010;19.890;2022-09-28T10:48:15;23.40;92.80
19309;DHT22;9789;50.010;19.890;2022-09-28T10:50:57;23.40;92.70
19309;DHT22;9789;50.010;19.890;2022-09-28T10:53:26;23.50;93.00
19309;DHT22;9789;50.010;19.890;2022-09-28T10:56:18;23.50;93.00
19309;DHT22;9789;50.010;19.890;2022-09-28T10:58:52;23.50;93.00
19309;DHT22;9789;50.010;19.890;2022-09-28T11:01:31;23.50;92.90
19309;DHT22;9789;50.010;19.890;2022-09-28T11:04:05;23.50;92.60
19309;DHT22;9789;50.010;19.890;2022-09-28T11:06:37;23.50;92.50
19309;DHT22;9789;50.010;19.890;2022-09-28T11:09:26;23.50;92.60
19309;DHT22;9789;50.010;19.890;2022-09-28T11:12:03;23.50;92.60
19309;DHT22;9789;50.010;19.890;2022-09-28T11:14:34;23.50;92.50
19309;DHT22;9789;50.010;19.890;2022-09-28T11:17:20;23.50;92.40
19309;DHT22;9789;50.010;19.890;2022-09-28T11:19:53;23.50;92.40
19309;DHT22;9789;50.010;19.890;2022-09-28T11:22:24;23.50;92.30
19309;DHT22;9789;50.010;19.890;2022-09-28T11:25:18;23.50;92.20
19309;DHT22;9789;50.010;19.890;2022-09-28T11:27:56;23.50;92.30
19309;DHT22;9789;50.010;19.890;2022-09-28T11:30:26;23.50;92.50
19309;DHT22;9789;50.010;19.890;2022-09-28T11:33:26;23.60;92.50
19309;DHT22;9789;50.010;19.890;2022-09-28T11:36:27;23.60;92.50
19309;DHT22;9789;50.010;19.890;2022-09-28T11:39:05;23.60;92.20
19309;DHT22;9789;50.010;19.890;2022-09-28T11:41:56;23.60;91.80
19309;DHT22;9789;50.010;19.890;2022-09-28T11:44:38;23.60;91.60
19309;DHT22;9789;50.010;19.890;2022-09-28T11:50:29;23.60;91.60
19309;DHT22;9789;50.010;19.890;2022-09-28T11:53:15;23.70;91.50
19309;DHT22;9789;50.010;19.890;2022-09-28T11:55:53;23.70;91.90
19309;DHT22;9789;50.010;19.890;2022-09-28T11:58:26;23.70;91.80
19309;DHT22;9789;50.010;19.890;2022-09-28T12:01:01;23.60;91.50
19309;DHT22;9789;50.010;19.890;2022-09-28T12:03:52;23.60;91.90
19309;DHT22;9789;50.010;19.890;2022-09-28T12:06:28;23.70;91.70
19309;DHT22;9789;50.010;19.890;2022-09-28T12:09:05;23.70;91.80
19309;DHT22;9789;50.010;19.890;2022-09-28T12:12:19;23.70;91.50
19309;DHT22;9789;50.010;19.890;2022-09-28T12:14:50;23.70;91.80
19309;DHT22;9789;50.010;19.890;2022-09-28T12:17:22;23.60;91.60
19309;DHT22;9789;50.010;19.890;2022-09-28T12:19:55;23.60;91.70
19309;DHT22;9789;50.010;19.890;2022-09-28T12:22:31;23.60;91.70
19309;DHT22;9789;50.010;19.890;2022-09-28T12:25:02;23.50;91.70
19309;DHT22;9789;50.010;19.890;2022-09-28T12:27:36;23.50;89.40
19309;DHT22;9789;50.010;19.890;2022-09-28T12:30:13;23.40;85.60
19309;DHT22;9789;50.010;19.890;2022-09-28T12:32:45;23.40;84.60
19309;DHT22;9789;50.010;19.890;2022-09-28T12:35:17;23.30;83.60
19309;DHT22;9789;50.010;19.890;2022-09-28T12:38:02;23.20;82.00
19309;DHT22;9789;50.010;19.890;2022-09-28T12:40:42;23.10;80.90
19309;DHT22;9789;50.010;19.890;2022-09-28T12:46:33;23.00;77.30
19309;DHT22;9789;50.010;19.890;2022-09-28T12:52:35;22.90;76.40
19309;DHT22;9789;50.010;19.890;2022-09-28T12:55:18;22.90;76.10
19309;DHT22;9789;50.010;19.890;2022-09-28T12:57:56;22.90;76.80
19309;DHT22;9789;50.010;19.890;2022-09-28T13:00:30;22.90;76.00
19309;DHT22;9789;50.010;19.890;2022-09-28T13:03:20;23.00;75.50
19309;DHT22;9789;50.010;19.890;2022-09-28T13:06:21;23.00;74.30
19309;DHT22;9789;50.010;19.890;2022-09-28T13:09:18;23.00;73.10
19309;DHT22;9789;50.010;19.890;2022-09-28T13:11:56;22.90;71.40
19309;DHT22;9789;50.010;19.890;2022-09-28T13:17:39;22.80;71.50
19309;DHT22;9789;50.010;19.890;2022-09-28T13:20:24;22.90;71.90
19309;DHT22;9789;50.010;19.890;2022-09-28T13:23:03;22.90;72.20
19309;DHT22;9789;50.010;19.890;2022-09-28T13:25:35;22.90;73.80
19309;DHT22;9789;50.010;19.890;2022-09-28T13:28:08;23.00;74.10
19309;DHT22;9789;50.010;19.890;2022-09-28T13:30:38;23.10;73.80
19309;DHT22;9789;50.010;19.890;2022-09-28T13:33:15;23.10;74.90
19309;DHT22;9789;50.010;19.890;2022-09-28T13:35:44;23.10;73.30
19309;DHT22;9789;50.010;19.890;2022-09-28T13:41:15;23.00;72.60
19309;DHT22;9789;50.010;19.890;2022-09-28T13:43:59;23.10;73.20
19309;DHT22;9789;50.010;19.890;2022-09-28T13:46:36;23.10;73.70
19309;DHT22;9789;50.010;19.890;2022-09-28T13:49:14;23.20;74.40
19309;DHT22;9789;50.010;19.890;2022-09-28T13:52:03;23.20;74.70
19309;DHT22;9789;50.010;19.890;2022-09-28T13:54:54;23.30;74.90
19309;DHT22;9789;50.010;19.890;2022-09-28T13:57:30;23.30;75.20
19309;DHT22;9789;50.010;19.890;2022-09-28T14:00:07;23.30;75.70
19309;DHT22;9789;50.010;19.890;2022-09-28T14:02:43;23.40;76.10
19309;DHT22;9789;50.010;19.890;2022-09-28T14:05:33;23.30;76.00
19309;DHT22;9789;50.010;19.890;2022-09-28T14:08:22;23.40;76.40
19309;DHT22;9789;50.010;19.890;2022-09-28T14:10:53;23.30;76.50
19309;DHT22;9789;50.010;19.890;2022-09-28T14:16:27;23.30;77.30
19309;DHT22;9789;50.010;19.890;2022-09-28T14:19:02;23.30;78.40
19309;DHT22;9789;50.010;19.890;2022-09-28T14:21:49;23.30;79.70
19309;DHT22;9789;50.010;19.890;2022-09-28T14:24:30;23.30;80.50
19309;DHT22;9789;50.010;19.890;2022-09-28T14:27:36;23.30;81.60
19309;DHT22;9789;50.010;19.890;2022-09-28T14:30:19;23.30;82.50
19309;DHT22;9789;50.010;19.890;2022-09-28T14:32:53;23.30;83.10
19309;DHT22;9789;50.010;19.890;2022-09-28T14:35:27;23.30;84.00
19309;DHT22;9789;50.010;19.890;2022-09-28T14:38:05;23.30;83.80
19309;DHT22;9789;50.010;19.890;2022-09-28T14:41:02;23.20;84.10
19309;DHT22;9789;50.010;19.890;2022-09-28T14:43:57;23.20;84.30
19309;DHT22;9789;50.010;19.890;2022-09-28T14:46:34;23.20;84.80
19309;DHT22;9789;50.010;19.890;2022-09-28T14:49:05;23.30;85.30
19309;DHT22;9789;50.010;19.890;2022-09-28T14:52:02;23.30;85.70
19309;DHT22;9789;50.010;19.890;2022-09-28T14:54:58;23.30;86.10
19309;DHT22;9789;50.010;19.890;2022-09-28T14:57:28;23.30;86.60
19309;DHT22;9789;50.010;19.890;2022-09-28T14:59:58;23.40;87.00
19309;DHT22;9789;50.010;19.890;2022-09-28T15:02:30;23.30;87.00
19309;DHT22;9789;50.010;19.890;2022-09-28T15:05:08;23.30;87.00
19309;DHT22;9789;50.010;19.890;2022-09-28T15:07:45;23.40;87.70
19309;DHT22;9789;50.010;19.890;2022-09-28T15:10:24;23.40;88.20
19309;DHT22;9789;50.010;19.890;2022-09-28T15:12:54;23.40;88.70
19309;DHT22;9789;50.010;19.890;2022-09-28T15:15:30;23.40;89.70
19309;DHT22;9789;50.010;19.890;2022-09-28T15:18:12;23.50;89.80
19309;DHT22;9789;50.010;19.890;2022-09-28T15:20:46;23.40;90.60
19309;DHT22;9789;50.010;19.890;2022-09-28T15:23:26;23.50;90.80
19309;DHT22;9789;50.010;19.890;2022-09-28T15:26:02;23.50;91.20
19309;DHT22;9789;50.010;19.890;2022-09-28T15:28:33;23.50;91.60
19309;DHT22;9789;50.010;19.890;2022-09-28T15:31:03;23.50;91.80
19309;DHT22;9789;50.010;19.890;2022-09-28T15:33:33;23.40;91.80
19309;DHT22;9789;50.010;19.890;2022-09-28T15:36:20;23.40;92.20
19309;DHT22;9789;50.010;19.890;2022-09-28T15:38:54;23.50;92.30
19309;DHT22;9789;50.010;19.890;2022-09-28T15:41:25;23.40;92.10
19309;DHT22;9789;50.010;19.890;2022-09-28T15:47:06;23.40;91.70
19309;DHT22;9789;50.010;19.890;2022-09-28T15:49:38;23.40;91.80
19309;DHT22;9789;50.010;19.890;2022-09-28T15:52:22;23.40;91.50
19309;DHT22;9789;50.010;19.890;2022-09-28T15:54:52;23.40;91.60
19309;DHT22;9789;50.010;19.890;2022-09-28T15:57:34;23.40;91.20
19309;DHT22;9789;50.010;19.890;2022-09-28T16:00:06;23.40;91.50
19309;DHT22;9789;50.010;19.890;2022-09-28T16:03:02;23.30;91.60
19309;DHT22;9789;50.010;19.890;2022-09-28T16:05:41;23.30;91.60
19309;DHT22;9789;50.010;19.890;2022-09-28T16:08:14;23.30;91.80
19309;DHT22;9789;50.010;19.890;2022-09-28T16:10:57;23.20;91.10
19309;DHT22;9789;50.010;19.890;2022-09-28T16:13:28;23.20;91.00
19309;DHT22;9789;50.010;19.890;2022-09-28T16:15:57;23.20;90.90
19309;DHT22;9789;50.010;19.890;2022-09-28T16:18:27;23.20;90.80
19309;DHT22;9789;50.010;19.890;2022-09-28T16:21:00;23.10;90.60
19309;DHT22;9789;50.010;19.890;2022-09-28T16:23:50;23.10;90.40
19309;DHT22;9789;50.010;19.890;2022-09-28T16:26:30;23.10;90.20
19309;DHT22;9789;50.010;19.890;2022-09-28T16:29:07;23.10;90.00
19309;DHT22;9789;50.010;19.890;2022-09-28T16:31:36;23.00;89.70
19309;DHT22;9789;50.010;19.890;2022-09-28T16:34:15;23.10;89.50
19309;DHT22;9789;50.010;19.890;2022-09-28T16:36:47;23.00;89.10
19309;DHT22;9789;50.010;19.890;2022-09-28T16:39:17;23.00;89.10
19309;DHT22;9789;50.010;19.890;2022-09-28T16:41:48;23.00;88.40
19309;DHT22;9789;50.010;19.890;2022-09-28T16:44:21;23.00;88.10
19309;DHT22;9789;50.010;19.890;2022-09-28T16:46:52;23.00;87.70
19309;DHT22;9789;50.010;19.890;2022-09-28T16:49:23;23.00;87.50
19309;DHT22;9789;50.010;19.890;2022-09-28T16:51:52;23.10;87.30
19309;DHT22;9789;50.010;19.890;2022-09-28T16:54:22;23.00;87.10
19309;DHT22;9789;50.010;19.890;2022-09-28T16:57:10;23.00;87.10
19309;DHT22;9789;50.010;19.890;2022-09-28T16:59:40;23.00;86.90
19309;DHT22;9789;50.010;19.890;2022-09-28T17:02:17;23.00;86.60